Time;durP1;ratioP1;P1;durP2;ratioP2;P2;SDS_P1;SDS_P2;PMS_P1;PMS_P2;Temp;Humidity;BMP_temperature;BMP_pressure;BME280_temperature;BME280_humidity;BME280_pressure;Samples;Min_cycle;Max_cycle;Signal;HPM_P1;HPM_P2
2021/04/24 00:00:57;;;;;;;7.57;5.87;;;;;;;;;;2103232;28;20175;-60
2021/04/24 00:01:57;;;;;;;11.37;5.50;;;;;;;;;;2101342;28;20175;-59
2021/04/24 00:02:58;;;;;;;8.67;5.70;;;;;;;;;;2103455;28;20198;-59
2021/04/24 00:03:59;;;;;;;8.00;6.70;;;;;;;;;;2102647;28;20683;-59
2021/04/24 00:04:59;;;;;;;9.73;6.77;;;;;;;;;;2104019;28;20178;-59
2021/04/24 00:05:59;;;;;;;9.43;6.70;;;;;;;;;;2103156;28;20194;-60
2021/04/24 00:06:59;;;;;;;8.20;6.60;;;;;;;;;;2102527;28;20177;-60
2021/04/24 00:08:02;;;;;;;8.40;6.10;;;;;;;;;;2104082;28;20174;-60
2021/04/24 00:09:04;;;;;;;6.53;5.83;;;;;;;;;;2106899;28;20162;-60
2021/04/24 00:10:05;;;;;;;8.70;6.03;;;;;;;;;;2106201;28;20686;-59
2021/04/24 00:11:05;;;;;;;7.43;6.27;;;;;;;;;;2106432;28;20189;-58
2021/04/24 00:12:05;;;;;;;10.10;6.80;;;;;;;;;;2105327;28;20274;-59
2021/04/24 00:13:07;;;;;;;10.90;6.17;;;;;;;;;;2106231;28;20674;-59
2021/04/24 00:14:07;;;;;;;8.97;6.37;;;;;;;;;;2104822;28;20761;-60
2021/04/24 00:15:09;;;;;;;8.13;5.30;;;;;;;;;;2106220;28;20224;-60
2021/04/24 00:16:09;;;;;;;9.27;6.13;;;;;;;;;;2104351;28;20185;-65
2021/04/24 00:17:10;;;;;;;10.27;5.87;;;;;;;;;;2106204;28;20204;-60
2021/04/24 00:18:11;;;;;;;10.27;6.43;;;;;;;;;;2106043;28;20295;-59
2021/04/24 00:19:11;;;;;;;8.47;6.40;;;;;;;;;;2106317;28;20174;-61
2021/04/24 00:20:16;;;;;;;9.37;6.87;;;;;;;;;;2103781;28;20178;-60
2021/04/24 00:21:16;;;;;;;13.10;7.17;;;;;;;;;;2106437;28;20323;-56
2021/04/24 00:22:17;;;;;;;12.40;7.30;;;;;;;;;;2105672;28;20759;-59
2021/04/24 00:23:17;;;;;;;9.17;6.57;;;;;;;;;;2105962;28;20189;-58
2021/04/24 00:24:17;;;;;;;14.40;6.57;;;;;;;;;;2106191;28;20182;-58
2021/04/24 00:25:18;;;;;;;9.70;6.50;;;;;;;;;;2105752;28;20201;-60
2021/04/24 00:26:18;;;;;;;11.13;6.83;;;;;;;;;;2102519;28;20232;-59
2021/04/24 00:27:18;;;;;;;11.23;6.77;;;;;;;;;;2103087;28;20167;-59
2021/04/24 00:28:19;;;;;;;10.10;6.80;;;;;;;;;;2101388;28;20182;-58
2021/04/24 00:29:19;;;;;;;11.53;6.83;;;;;;;;;;2102774;28;20306;-59
2021/04/24 00:30:19;;;;;;;9.70;6.87;;;;;;;;;;2105218;28;20827;-59
2021/04/24 00:31:20;;;;;;;10.27;6.70;;;;;;;;;;2106637;28;20531;-56
2021/04/24 00:32:20;;;;;;;9.60;6.33;;;;;;;;;;2106882;28;20670;-60
2021/04/24 00:33:20;;;;;;;12.57;7.00;;;;;;;;;;2104834;28;20255;-58
2021/04/24 00:34:20;;;;;;;11.83;6.83;;;;;;;;;;2105989;28;20714;-60
2021/04/24 00:35:21;;;;;;;11.70;7.00;;;;;;;;;;2104876;28;20194;-59
2021/04/24 00:36:22;;;;;;;10.00;6.77;;;;;;;;;;2105364;28;20177;-61
2021/04/24 00:37:22;;;;;;;14.10;7.50;;;;;;;;;;2106801;28;20290;-60
2021/04/24 00:38:23;;;;;;;9.70;7.33;;;;;;;;;;2096681;28;20202;-60
2021/04/24 00:39:23;;;;;;;7.93;6.97;;;;;;;;;;2097734;28;20175;-58
2021/04/24 00:40:24;;;;;;;8.50;7.20;;;;;;;;;;2104176;28;20178;-60
2021/04/24 00:41:24;;;;;;;10.83;6.33;;;;;;;;;;2103326;28;20201;-57
2021/04/24 00:42:24;;;;;;;14.10;6.83;;;;;;;;;;2106180;28;20244;-57
2021/04/24 00:43:25;;;;;;;9.13;6.63;;;;;;;;;;2105240;28;20250;-59
2021/04/24 00:44:25;;;;;;;10.43;6.30;;;;;;;;;;2098421;28;20632;-57
2021/04/24 00:45:26;;;;;;;10.53;7.03;;;;;;;;;;2098502;28;20189;-59
2021/04/24 00:46:26;;;;;;;7.80;6.10;;;;;;;;;;2100807;28;20214;-58
2021/04/24 00:47:26;;;;;;;11.33;6.40;;;;;;;;;;2104827;28;20177;-59
2021/04/24 00:48:27;;;;;;;11.37;6.47;;;;;;;;;;2094376;28;20265;-59
2021/04/24 00:49:27;;;;;;;10.57;6.97;;;;;;;;;;2097735;28;20198;-61
2021/04/24 00:50:30;;;;;;;9.67;7.17;;;;;;;;;;2105664;28;20179;-59
2021/04/24 00:51:31;;;;;;;10.90;6.57;;;;;;;;;;2106571;28;20170;-58
2021/04/24 00:52:31;;;;;;;10.17;6.70;;;;;;;;;;2101843;28;20230;-59
2021/04/24 00:53:31;;;;;;;8.67;7.07;;;;;;;;;;2103728;28;20224;-60
2021/04/24 00:54:32;;;;;;;11.03;7.57;;;;;;;;;;2106529;28;20185;-60
2021/04/24 00:55:33;;;;;;;11.73;7.40;;;;;;;;;;2105225;28;20178;-57
2021/04/24 00:56:33;;;;;;;11.27;7.63;;;;;;;;;;2104950;28;20642;-58
2021/04/24 00:57:34;;;;;;;9.43;7.03;;;;;;;;;;2106591;28;20205;-60
2021/04/24 00:58:35;;;;;;;12.23;7.90;;;;;;;;;;2105165;28;20229;-57
2021/04/24 00:59:38;;;;;;;11.30;7.17;;;;;;;;;;2105172;28;20659;-60
2021/04/24 01:00:39;;;;;;;10.60;7.33;;;;;;;;;;2103544;28;20210;-60
2021/04/24 01:01:40;;;;;;;13.90;7.90;;;;;;;;;;2104686;28;20185;-59
2021/04/24 01:02:41;;;;;;;11.13;7.30;;;;;;;;;;2105467;28;20190;-58
2021/04/24 01:03:41;;;;;;;13.13;7.80;;;;;;;;;;2103178;28;20169;-56
2021/04/24 01:04:42;;;;;;;11.10;7.80;;;;;;;;;;2104597;28;20723;-62
2021/04/24 01:05:43;;;;;;;18.07;12.47;;;;;;;;;;2104071;28;20175;-58
2021/04/24 01:06:43;;;;;;;13.87;8.40;;;;;;;;;;2100192;28;20657;-57
2021/04/24 01:07:43;;;;;;;12.97;8.43;;;;;;;;;;2091254;28;20698;-60
2021/04/24 01:08:44;;;;;;;15.27;11.13;;;;;;;;;;2097704;28;20213;-59
2021/04/24 01:09:44;;;;;;;11.40;8.47;;;;;;;;;;2102384;28;20201;-59
2021/04/24 01:10:44;;;;;;;11.23;7.60;;;;;;;;;;2104497;28;20174;-59
2021/04/24 01:11:45;;;;;;;14.20;8.40;;;;;;;;;;2102385;28;20179;-60
2021/04/24 01:12:47;;;;;;;15.17;9.47;;;;;;;;;;2105201;28;20171;-60
2021/04/24 01:13:47;;;;;;;12.33;8.10;;;;;;;;;;2104694;28;20182;-60
2021/04/24 01:14:47;;;;;;;14.13;8.83;;;;;;;;;;2106802;28;20650;-59
2021/04/24 01:15:48;;;;;;;12.93;7.97;;;;;;;;;;2105392;28;20166;-59
2021/04/24 01:16:48;;;;;;;12.53;7.57;;;;;;;;;;2105891;28;20176;-60
2021/04/24 01:17:49;;;;;;;14.33;8.27;;;;;;;;;;2104924;28;20272;-60
2021/04/24 01:18:49;;;;;;;13.00;7.57;;;;;;;;;;2097420;28;20191;-61
2021/04/24 01:19:49;;;;;;;11.43;7.30;;;;;;;;;;2097755;28;20716;-61
2021/04/24 01:20:52;;;;;;;12.13;7.20;;;;;;;;;;2090446;28;20194;-58
2021/04/24 01:21:53;;;;;;;12.87;8.10;;;;;;;;;;2097873;28;20197;-60
2021/04/24 01:22:53;;;;;;;10.33;7.33;;;;;;;;;;2097424;28;20175;-59
2021/04/24 01:23:54;;;;;;;11.40;8.07;;;;;;;;;;2105278;28;20204;-59
2021/04/24 01:24:54;;;;;;;11.13;8.43;;;;;;;;;;2102731;28;20307;-57
2021/04/24 01:25:54;;;;;;;10.70;7.67;;;;;;;;;;2103229;28;20178;-60
2021/04/24 01:26:55;;;;;;;14.23;7.80;;;;;;;;;;2105967;28;20177;-61
2021/04/24 01:27:56;;;;;;;10.60;7.93;;;;;;;;;;2103959;28;20178;-62
2021/04/24 01:28:57;;;;;;;8.17;6.90;;;;;;;;;;2105798;28;20178;-61
2021/04/24 01:29:57;;;;;;;15.50;8.93;;;;;;;;;;2105943;28;20186;-60
2021/04/24 01:30:57;;;;;;;11.30;8.10;;;;;;;;;;2106083;28;20166;-60
2021/04/24 01:32:00;;;;;;;11.20;7.57;;;;;;;;;;2099350;28;20183;-60
2021/04/24 01:33:02;;;;;;;13.10;8.10;;;;;;;;;;2102595;28;20687;-57
2021/04/24 01:34:03;;;;;;;11.43;7.90;;;;;;;;;;2105171;28;20175;-60
2021/04/24 01:35:06;;;;;;;9.07;7.33;;;;;;;;;;2103681;28;20158;-60
2021/04/24 01:36:06;;;;;;;14.07;8.43;;;;;;;;;;2100798;28;20170;-60
2021/04/24 01:37:06;;;;;;;9.93;8.10;;;;;;;;;;2106113;28;20215;-60
2021/04/24 01:38:07;;;;;;;14.10;8.30;;;;;;;;;;2101165;28;20178;-60
2021/04/24 01:39:08;;;;;;;10.53;7.57;;;;;;;;;;2105795;28;20187;-61
2021/04/24 01:40:10;;;;;;;12.33;8.23;;;;;;;;;;2105877;28;20173;-60
2021/04/24 01:41:10;;;;;;;11.80;7.73;;;;;;;;;;2095281;28;20193;-59
2021/04/24 01:42:11;;;;;;;11.47;8.30;;;;;;;;;;2092295;28;20257;-60
2021/04/24 01:43:11;;;;;;;9.87;7.57;;;;;;;;;;2101952;28;20185;-57
2021/04/24 01:44:12;;;;;;;13.37;7.47;;;;;;;;;;2105002;28;20178;-60
2021/04/24 01:45:13;;;;;;;11.30;7.93;;;;;;;;;;2103605;28;20185;-60
2021/04/24 01:46:14;;;;;;;11.10;8.07;;;;;;;;;;2097780;28;20228;-59
2021/04/24 01:47:14;;;;;;;14.17;7.90;;;;;;;;;;2106038;28;20449;-60
2021/04/24 01:48:14;;;;;;;16.33;8.57;;;;;;;;;;2102362;28;20182;-60
2021/04/24 01:49:15;;;;;;;10.40;8.33;;;;;;;;;;2106132;28;20253;-60
2021/04/24 01:50:22;;;;;;;11.63;8.03;;;;;;;;;;2106693;28;20204;-60
2021/04/24 01:51:23;;;;;;;13.03;8.33;;;;;;;;;;2103301;28;20196;-59
2021/04/24 01:52:30;;;;;;;14.37;8.50;;;;;;;;;;2097015;28;20183;-60
2021/04/24 01:53:30;;;;;;;14.00;7.93;;;;;;;;;;2095692;28;20267;-59
2021/04/24 01:54:30;;;;;;;9.80;7.53;;;;;;;;;;2095153;28;20570;-59
2021/04/24 01:55:31;;;;;;;14.33;8.10;;;;;;;;;;2094078;28;20183;-60
2021/04/24 01:56:41;;;;;;;13.77;8.10;;;;;;;;;;2104650;28;20174;-59
2021/04/24 01:57:42;;;;;;;14.60;8.67;;;;;;;;;;2107075;28;20220;-57
2021/04/24 01:58:42;;;;;;;16.00;8.07;;;;;;;;;;2105703;28;20186;-59
2021/04/24 01:59:43;;;;;;;12.77;8.17;;;;;;;;;;2101112;28;20166;-58
2021/04/24 02:00:52;;;;;;;10.27;8.27;;;;;;;;;;2105244;28;20218;-59
2021/04/24 02:01:53;;;;;;;10.80;8.07;;;;;;;;;;2098066;28;20628;-59
2021/04/24 02:02:53;;;;;;;14.00;7.63;;;;;;;;;;2105217;28;20183;-60
2021/04/24 02:03:54;;;;;;;16.77;8.37;;;;;;;;;;2100765;28;20236;-60
2021/04/24 02:04:54;;;;;;;11.73;7.90;;;;;;;;;;2107489;28;20315;-60
2021/04/24 02:05:55;;;;;;;12.47;8.27;;;;;;;;;;2097824;28;20175;-59
2021/04/24 02:06:55;;;;;;;12.93;8.10;;;;;;;;;;2106831;28;20726;-58
2021/04/24 02:07:57;;;;;;;12.93;7.57;;;;;;;;;;2106112;28;20182;-61
2021/04/24 02:08:57;;;;;;;10.33;8.20;;;;;;;;;;2098294;28;20297;-58
2021/04/24 02:09:57;;;;;;;14.10;8.83;;;;;;;;;;2106725;28;20166;-60
2021/04/24 02:10:57;;;;;;;12.27;8.97;;;;;;;;;;2105140;28;20668;-62
2021/04/24 02:12:08;;;;;;;18.30;9.27;;;;;;;;;;2106323;28;20198;-61
2021/04/24 02:13:10;;;;;;;13.67;8.30;;;;;;;;;;2105816;28;20665;-60
2021/04/24 02:14:10;;;;;;;11.73;8.57;;;;;;;;;;2105652;28;20189;-58
2021/04/24 02:15:11;;;;;;;12.33;7.77;;;;;;;;;;2106050;28;20178;-61
2021/04/24 02:16:12;;;;;;;13.10;7.77;;;;;;;;;;2104103;28;20749;-60
2021/04/24 02:17:14;;;;;;;12.00;7.87;;;;;;;;;;2105629;28;20270;-60
2021/04/24 02:18:14;;;;;;;12.40;8.53;;;;;;;;;;2105178;28;20174;-58
2021/04/24 02:19:15;;;;;;;13.30;8.33;;;;;;;;;;2105711;28;20201;-59
2021/04/24 02:20:16;;;;;;;11.60;8.00;;;;;;;;;;2106074;28;20642;-57
2021/04/24 02:21:16;;;;;;;18.17;10.03;;;;;;;;;;2103149;28;20174;-60
2021/04/24 02:22:17;;;;;;;13.90;8.17;;;;;;;;;;2105121;28;20185;-58
2021/04/24 02:23:18;;;;;;;10.97;8.27;;;;;;;;;;2102797;28;20181;-59
2021/04/24 02:24:18;;;;;;;13.10;8.30;;;;;;;;;;2104335;28;20213;-59
2021/04/24 02:25:20;;;;;;;9.50;7.70;;;;;;;;;;2105314;28;20543;-57
2021/04/24 02:26:20;;;;;;;10.73;7.30;;;;;;;;;;2105395;28;20182;-60
2021/04/24 02:27:21;;;;;;;11.47;8.93;;;;;;;;;;2105394;28;20587;-57
2021/04/24 02:28:21;;;;;;;10.93;7.83;;;;;;;;;;2106032;28;20243;-59
2021/04/24 02:29:21;;;;;;;9.53;7.47;;;;;;;;;;2103050;28;20619;-60
2021/04/24 02:30:22;;;;;;;14.23;8.70;;;;;;;;;;2101064;28;20167;-58
2021/04/24 02:31:22;;;;;;;11.90;7.70;;;;;;;;;;2103000;28;20516;-57
2021/04/24 02:32:24;;;;;;;9.97;8.17;;;;;;;;;;2105043;28;20192;-59
2021/04/24 02:33:25;;;;;;;14.37;8.07;;;;;;;;;;2104512;28;20181;-60
2021/04/24 02:34:25;;;;;;;18.23;9.23;;;;;;;;;;2105021;28;20185;-58
2021/04/24 02:35:42;;;;;;;13.63;7.73;;;;;;;;;;2097237;28;20242;-59
2021/04/24 02:36:42;;;;;;;11.20;7.93;;;;;;;;;;2103629;28;20236;-60
2021/04/24 02:37:43;;;;;;;12.97;8.00;;;;;;;;;;2106259;28;20481;-60
2021/04/24 02:38:49;;;;;;;12.53;7.67;;;;;;;;;;2105177;28;20268;-57
2021/04/24 02:39:50;;;;;;;20.67;8.23;;;;;;;;;;2105556;28;20569;-60
2021/04/24 02:40:52;;;;;;;14.13;8.60;;;;;;;;;;2097733;28;20179;-59
2021/04/24 02:41:52;;;;;;;13.83;7.60;;;;;;;;;;2106192;28;20193;-61
2021/04/24 02:42:52;;;;;;;13.70;8.93;;;;;;;;;;2103699;28;20178;-62
2021/04/24 02:43:52;;;;;;;13.47;7.67;;;;;;;;;;2105133;28;20584;-60
2021/04/24 02:44:54;;;;;;;11.30;7.87;;;;;;;;;;2104877;28;20185;-60
2021/04/24 02:45:55;;;;;;;15.47;9.03;;;;;;;;;;2103010;28;20196;-59
2021/04/24 02:46:56;;;;;;;12.83;8.63;;;;;;;;;;2105342;28;20630;-55
2021/04/24 02:47:56;;;;;;;13.47;8.70;;;;;;;;;;2104418;28;20185;-59
2021/04/24 02:48:57;;;;;;;20.07;8.50;;;;;;;;;;2103517;28;20447;-59
2021/04/24 02:49:57;;;;;;;12.07;7.87;;;;;;;;;;2105977;28;20178;-59
2021/04/24 02:50:57;;;;;;;15.27;8.30;;;;;;;;;;2103444;28;20263;-60
2021/04/24 02:51:58;;;;;;;11.80;8.67;;;;;;;;;;2097768;28;20275;-60
2021/04/24 02:52:58;;;;;;;11.27;7.17;;;;;;;;;;2104856;28;20269;-59
2021/04/24 02:53:58;;;;;;;11.83;8.80;;;;;;;;;;2105232;28;20258;-59
2021/04/24 02:54:58;;;;;;;15.87;9.27;;;;;;;;;;2104270;28;20193;-59
2021/04/24 02:56:00;;;;;;;14.43;8.93;;;;;;;;;;2098278;28;20178;-58
2021/04/24 02:57:01;;;;;;;12.73;8.63;;;;;;;;;;2101215;28;20179;-60
2021/04/24 02:58:01;;;;;;;14.23;8.30;;;;;;;;;;2104120;28;20257;-52
2021/04/24 02:59:02;;;;;;;14.67;8.30;;;;;;;;;;2105027;28;20170;-60
2021/04/24 03:00:06;;;;;;;16.10;9.40;;;;;;;;;;2105109;28;20223;-60
2021/04/24 03:01:06;;;;;;;10.50;7.87;;;;;;;;;;2103782;28;20197;-60
2021/04/24 03:02:06;;;;;;;17.00;8.50;;;;;;;;;;2105804;28;20173;-61
2021/04/24 03:03:11;;;;;;;16.50;8.90;;;;;;;;;;2105238;28;20433;-58
2021/04/24 03:04:12;;;;;;;11.23;8.03;;;;;;;;;;2103924;28;20182;-60
2021/04/24 03:05:16;;;;;;;12.90;8.23;;;;;;;;;;2105420;28;20208;-60
2021/04/24 03:06:16;;;;;;;18.43;9.20;;;;;;;;;;2102823;28;20209;-56
2021/04/24 03:07:16;;;;;;;17.07;8.20;;;;;;;;;;2102287;28;20419;-58
2021/04/24 03:08:17;;;;;;;14.50;8.00;;;;;;;;;;2100765;28;20677;-59
2021/04/24 03:09:17;;;;;;;16.10;8.77;;;;;;;;;;2104904;28;20246;-58
2021/04/24 03:10:17;;;;;;;14.73;8.60;;;;;;;;;;2105237;28;20177;-59
2021/04/24 03:11:18;;;;;;;12.57;8.80;;;;;;;;;;2102567;28;20620;-58
2021/04/24 03:12:18;;;;;;;16.00;8.40;;;;;;;;;;2105812;28;20662;-58
2021/04/24 03:13:18;;;;;;;16.87;8.87;;;;;;;;;;2104573;28;20569;-60
2021/04/24 03:14:18;;;;;;;13.43;8.80;;;;;;;;;;2106151;28;20189;-59
2021/04/24 03:15:19;;;;;;;12.67;8.40;;;;;;;;;;2106271;28;20174;-59
2021/04/24 03:16:19;;;;;;;16.17;8.93;;;;;;;;;;2107323;28;20174;-57
2021/04/24 03:17:20;;;;;;;12.70;8.63;;;;;;;;;;2097676;28;20265;-59
2021/04/24 03:18:20;;;;;;;13.33;8.77;;;;;;;;;;2097809;28;20759;-59
2021/04/24 03:19:20;;;;;;;16.00;8.43;;;;;;;;;;2105894;28;20578;-59
2021/04/24 03:20:21;;;;;;;14.97;8.93;;;;;;;;;;2106839;28;20166;-59
2021/04/24 03:21:22;;;;;;;10.60;8.07;;;;;;;;;;2102724;28;20178;-59
2021/04/24 03:22:22;;;;;;;18.87;8.80;;;;;;;;;;2107322;28;20222;-56
2021/04/24 03:23:23;;;;;;;12.57;8.23;;;;;;;;;;2103448;28;20728;-59
2021/04/24 03:24:23;;;;;;;13.03;8.10;;;;;;;;;;2103674;28;20166;-60
2021/04/24 03:25:23;;;;;;;17.07;9.03;;;;;;;;;;2103540;28;20187;-60
2021/04/24 03:26:24;;;;;;;15.10;8.30;;;;;;;;;;2107351;28;20201;-60
2021/04/24 03:27:24;;;;;;;14.10;8.73;;;;;;;;;;2102123;28;20560;-59
2021/04/24 03:28:24;;;;;;;13.53;7.97;;;;;;;;;;2103075;28;20217;-60
2021/04/24 03:29:25;;;;;;;13.47;8.37;;;;;;;;;;2105388;28;20717;-59
2021/04/24 03:30:25;;;;;;;12.90;8.60;;;;;;;;;;2104040;28;20587;-60
2021/04/24 03:31:26;;;;;;;18.13;9.37;;;;;;;;;;2101339;28;20163;-58
2021/04/24 03:32:26;;;;;;;14.20;8.87;;;;;;;;;;2103044;28;20171;-59
2021/04/24 03:33:27;;;;;;;16.87;9.30;;;;;;;;;;2105637;28;20166;-57
2021/04/24 03:34:27;;;;;;;13.33;8.83;;;;;;;;;;2106622;28;20630;-60
2021/04/24 03:35:27;;;;;;;13.63;8.73;;;;;;;;;;2105612;28;20182;-60
2021/04/24 03:36:28;;;;;;;15.50;9.43;;;;;;;;;;2104726;28;20185;-60
2021/04/24 03:37:28;;;;;;;17.97;10.20;;;;;;;;;;2105468;28;20178;-59
2021/04/24 03:38:28;;;;;;;14.13;9.00;;;;;;;;;;2106049;28;20690;-60
2021/04/24 03:39:29;;;;;;;13.63;8.63;;;;;;;;;;2105193;28;20198;-60
2021/04/24 03:40:29;;;;;;;13.93;8.97;;;;;;;;;;2097513;28;20266;-59
2021/04/24 03:41:29;;;;;;;16.97;8.87;;;;;;;;;;2103885;28;20290;-58
2021/04/24 03:42:30;;;;;;;12.67;8.50;;;;;;;;;;2107247;28;20181;-59
2021/04/24 03:43:30;;;;;;;14.40;9.03;;;;;;;;;;2105883;28;20171;-60
2021/04/24 03:44:30;;;;;;;17.60;9.73;;;;;;;;;;2105982;28;20166;-58
2021/04/24 03:45:31;;;;;;;15.33;9.80;;;;;;;;;;2102613;28;20166;-60
2021/04/24 03:46:31;;;;;;;15.70;9.33;;;;;;;;;;2105929;28;20205;-54
2021/04/24 03:47:31;;;;;;;14.60;9.43;;;;;;;;;;2105313;28;20626;-56
2021/04/24 03:48:32;;;;;;;15.40;9.07;;;;;;;;;;2103392;28;20194;-56
2021/04/24 03:49:32;;;;;;;14.27;8.77;;;;;;;;;;2102328;28;20233;-59
2021/04/24 03:50:33;;;;;;;15.03;8.83;;;;;;;;;;2096021;28;20228;-56
2021/04/24 03:51:33;;;;;;;13.93;9.57;;;;;;;;;;2101421;28;20577;-59
2021/04/24 03:52:33;;;;;;;14.60;8.63;;;;;;;;;;2104403;28;20208;-59
2021/04/24 03:53:33;;;;;;;19.33;9.47;;;;;;;;;;2097746;28;20186;-56
2021/04/24 03:54:34;;;;;;;14.57;9.10;;;;;;;;;;2106581;28;20178;-57
2021/04/24 03:55:34;;;;;;;13.87;9.63;;;;;;;;;;2106767;28;20194;-56
2021/04/24 03:56:34;;;;;;;17.97;9.43;;;;;;;;;;2098831;28;20182;-58
2021/04/24 03:57:34;;;;;;;14.70;8.70;;;;;;;;;;2089761;28;20176;-60
2021/04/24 03:58:35;;;;;;;16.23;9.20;;;;;;;;;;2089980;28;20191;-58
2021/04/24 03:59:35;;;;;;;13.67;9.30;;;;;;;;;;2098722;28;20250;-60
2021/04/24 04:00:35;;;;;;;13.43;9.27;;;;;;;;;;2098247;28;20714;-58
2021/04/24 04:01:36;;;;;;;18.13;9.93;;;;;;;;;;2099777;28;20255;-60
2021/04/24 04:02:49;;;;;;;15.90;9.53;;;;;;;;;;2102396;28;20181;-59
2021/04/24 04:03:50;;;;;;;14.83;9.77;;;;;;;;;;2106676;28;20705;-58
2021/04/24 04:04:50;;;;;;;17.87;9.73;;;;;;;;;;2106138;28;20182;-60
2021/04/24 04:05:51;;;;;;;17.10;9.77;;;;;;;;;;2102589;28;20178;-57
2021/04/24 04:06:51;;;;;;;14.07;9.47;;;;;;;;;;2098603;28;20232;-59
2021/04/24 04:07:51;;;;;;;13.43;8.30;;;;;;;;;;2102173;28;20583;-58
2021/04/24 04:08:52;;;;;;;18.77;9.77;;;;;;;;;;2105984;28;20282;-59
2021/04/24 04:09:52;;;;;;;15.13;9.40;;;;;;;;;;2105341;28;20642;-61
2021/04/24 04:10:52;;;;;;;13.67;9.37;;;;;;;;;;2105925;28;20223;-59
2021/04/24 04:11:53;;;;;;;16.43;9.90;;;;;;;;;;2105088;28;20175;-59
2021/04/24 04:12:54;;;;;;;14.83;9.33;;;;;;;;;;2106324;28;20166;-60
2021/04/24 04:13:54;;;;;;;15.90;9.70;;;;;;;;;;2097116;28;20265;-61
2021/04/24 04:14:54;;;;;;;15.43;9.10;;;;;;;;;;2110573;28;20234;-59
2021/04/24 04:15:54;;;;;;;16.43;9.60;;;;;;;;;;2106539;28;20162;-61
2021/04/24 04:16:55;;;;;;;17.70;9.53;;;;;;;;;;2101023;28;20197;-60
2021/04/24 04:18:00;;;;;;;17.47;10.17;;;;;;;;;;2106392;28;20166;-61
2021/04/24 04:19:00;;;;;;;15.80;9.87;;;;;;;;;;2104990;28;20162;-61
2021/04/24 04:20:00;;;;;;;16.67;10.10;;;;;;;;;;2100356;28;20716;-61
2021/04/24 04:21:01;;;;;;;16.87;9.27;;;;;;;;;;2106427;28;20159;-60
2021/04/24 04:22:02;;;;;;;18.70;10.47;;;;;;;;;;2106140;28;20174;-60
2021/04/24 04:23:02;;;;;;;17.50;9.73;;;;;;;;;;2105818;28;20182;-57
2021/04/24 04:24:03;;;;;;;15.57;9.97;;;;;;;;;;2106374;28;20207;-61
2021/04/24 04:25:03;;;;;;;16.37;9.47;;;;;;;;;;2106675;28;20177;-59
2021/04/24 04:26:04;;;;;;;18.93;9.90;;;;;;;;;;2104541;28;20221;-61
2021/04/24 04:27:04;;;;;;;17.40;10.17;;;;;;;;;;2099686;28;20238;-60
2021/04/24 04:28:05;;;;;;;13.50;9.57;;;;;;;;;;2105825;28;20177;-59
2021/04/24 04:29:05;;;;;;;14.67;9.97;;;;;;;;;;2105493;28;20198;-61
2021/04/24 04:30:07;;;;;;;20.80;10.43;;;;;;;;;;2105444;28;20182;-60
2021/04/24 04:31:07;;;;;;;18.60;10.90;;;;;;;;;;2104919;28;20178;-61
2021/04/24 04:32:07;;;;;;;16.83;10.43;;;;;;;;;;2105482;28;20231;-59
2021/04/24 04:33:08;;;;;;;18.23;10.63;;;;;;;;;;2105236;28;20261;-57
2021/04/24 04:34:08;;;;;;;17.90;10.80;;;;;;;;;;2105572;28;20198;-61
2021/04/24 04:35:09;;;;;;;17.67;10.37;;;;;;;;;;2103558;28;20174;-61
2021/04/24 04:36:09;;;;;;;14.00;9.37;;;;;;;;;;2099994;28;20343;-60
2021/04/24 04:37:10;;;;;;;18.47;10.80;;;;;;;;;;2104221;28;20209;-60
2021/04/24 04:38:10;;;;;;;19.50;10.90;;;;;;;;;;2100775;28;20257;-61
2021/04/24 04:39:11;;;;;;;23.87;10.37;;;;;;;;;;2103298;28;20308;-58
2021/04/24 04:40:12;;;;;;;22.63;10.40;;;;;;;;;;2105932;28;20170;-59
2021/04/24 04:41:12;;;;;;;20.00;10.30;;;;;;;;;;2104198;28;20549;-59
2021/04/24 04:42:12;;;;;;;15.87;10.23;;;;;;;;;;2100649;28;20177;-60
2021/04/24 04:43:13;;;;;;;20.07;9.70;;;;;;;;;;2104849;28;20221;-55
2021/04/24 04:44:13;;;;;;;15.47;10.03;;;;;;;;;;2105696;28;20658;-59
2021/04/24 04:45:15;;;;;;;19.70;11.17;;;;;;;;;;2105134;28;20598;-58
2021/04/24 04:46:15;;;;;;;15.70;9.23;;;;;;;;;;2104974;28;20277;-58
2021/04/24 04:47:15;;;;;;;17.43;10.33;;;;;;;;;;2104859;28;20174;-59
2021/04/24 04:48:16;;;;;;;14.83;9.77;;;;;;;;;;2105651;28;20638;-59
2021/04/24 04:49:16;;;;;;;14.90;9.90;;;;;;;;;;2099680;28;20213;-60
2021/04/24 04:50:20;;;;;;;13.83;9.30;;;;;;;;;;2101089;28;20178;-60
2021/04/24 04:51:21;;;;;;;13.93;8.60;;;;;;;;;;2101304;28;20189;-56
2021/04/24 04:52:21;;;;;;;14.33;9.00;;;;;;;;;;2099972;28;20162;-60
2021/04/24 04:53:21;;;;;;;14.10;8.70;;;;;;;;;;2104752;28;20175;-58
2021/04/24 04:54:22;;;;;;;14.90;9.17;;;;;;;;;;2105413;28;20718;-57
2021/04/24 04:55:22;;;;;;;12.60;8.80;;;;;;;;;;2110388;28;20261;-60
2021/04/24 04:56:22;;;;;;;17.20;9.43;;;;;;;;;;2104349;28;20171;-58
2021/04/24 04:57:23;;;;;;;12.70;9.33;;;;;;;;;;2102866;28;20197;-56
2021/04/24 04:58:24;;;;;;;11.97;8.73;;;;;;;;;;2104472;28;20684;-57
2021/04/24 04:59:27;;;;;;;15.40;9.47;;;;;;;;;;2106235;28;20666;-59
2021/04/24 05:00:28;;;;;;;13.40;8.53;;;;;;;;;;2101030;28;20178;-59
2021/04/24 05:01:28;;;;;;;17.77;9.33;;;;;;;;;;2103050;28;20194;-59
2021/04/24 05:02:28;;;;;;;11.37;8.30;;;;;;;;;;2105358;28;20251;-59
2021/04/24 05:03:28;;;;;;;11.90;8.63;;;;;;;;;;2104872;28;20178;-59
2021/04/24 05:04:29;;;;;;;16.23;9.10;;;;;;;;;;2096605;28;20191;-57
2021/04/24 05:05:29;;;;;;;12.43;8.87;;;;;;;;;;2094591;28;20221;-58
2021/04/24 05:06:29;;;;;;;12.47;9.63;;;;;;;;;;2098522;28;20294;-60
2021/04/24 05:07:29;;;;;;;17.13;10.00;;;;;;;;;;2103148;28;20171;-59
2021/04/24 05:08:30;;;;;;;16.13;10.20;;;;;;;;;;2122023;22;20224;-61
2021/04/24 05:09:30;;;;;;;13.30;9.40;;;;;;;;;;2101849;28;20190;-59
2021/04/24 05:10:30;;;;;;;16.37;10.00;;;;;;;;;;2104164;28;20189;-62
2021/04/24 05:11:30;;;;;;;14.10;9.13;;;;;;;;;;2104054;28;20170;-61
2021/04/24 05:12:31;;;;;;;15.47;9.20;;;;;;;;;;2096534;28;20185;-63
2021/04/24 05:13:32;;;;;;;18.30;11.00;;;;;;;;;;2102657;28;20263;-58
2021/04/24 05:14:32;;;;;;;11.20;8.50;;;;;;;;;;2106006;28;20178;-59
2021/04/24 05:15:32;;;;;;;13.87;9.47;;;;;;;;;;2106314;28;20293;-61
2021/04/24 05:16:33;;;;;;;12.63;9.03;;;;;;;;;;2104206;28;20795;-60
2021/04/24 05:17:33;;;;;;;13.17;9.23;;;;;;;;;;2104993;28;20706;-60
2021/04/24 05:18:33;;;;;;;15.40;8.70;;;;;;;;;;2110220;28;20657;-61
2021/04/24 05:19:33;;;;;;;16.47;8.93;;;;;;;;;;2105125;28;20166;-56
2021/04/24 05:20:34;;;;;;;14.10;8.73;;;;;;;;;;2103813;28;20713;-61
2021/04/24 05:21:34;;;;;;;13.33;8.70;;;;;;;;;;2097188;28;20266;-61
2021/04/24 05:22:34;;;;;;;12.43;10.10;;;;;;;;;;2095312;28;20265;-61
2021/04/24 05:23:35;;;;;;;13.73;9.37;;;;;;;;;;2095484;28;20677;-60
2021/04/24 05:24:35;;;;;;;13.60;9.43;;;;;;;;;;2095485;28;20672;-60
2021/04/24 05:25:35;;;;;;;15.00;9.43;;;;;;;;;;2096294;28;20202;-60
2021/04/24 05:26:36;;;;;;;13.90;8.90;;;;;;;;;;2096066;28;20210;-60
2021/04/24 05:27:36;;;;;;;14.57;8.67;;;;;;;;;;2095362;28;20190;-61
2021/04/24 05:28:36;;;;;;;15.27;8.67;;;;;;;;;;2097404;28;20221;-61
2021/04/24 05:29:36;;;;;;;14.93;9.43;;;;;;;;;;2096965;28;20178;-58
2021/04/24 05:30:37;;;;;;;12.40;9.20;;;;;;;;;;2094955;28;20186;-60
2021/04/24 05:31:37;;;;;;;12.53;9.20;;;;;;;;;;2087941;28;20203;-59
2021/04/24 05:32:37;;;;;;;15.43;9.53;;;;;;;;;;2097223;28;20620;-59
2021/04/24 05:33:37;;;;;;;14.83;9.67;;;;;;;;;;2093499;28;20190;-61
2021/04/24 05:34:38;;;;;;;14.93;9.50;;;;;;;;;;2096070;28;20175;-58
2021/04/24 05:35:38;;;;;;;19.23;10.40;;;;;;;;;;2084188;28;20226;-59
2021/04/24 05:36:38;;;;;;;13.27;9.70;;;;;;;;;;2086663;28;20183;-62
2021/04/24 05:37:38;;;;;;;13.73;9.40;;;;;;;;;;2097170;28;20173;-62
2021/04/24 05:38:39;;;;;;;15.47;9.70;;;;;;;;;;2097888;28;20704;-61
2021/04/24 05:39:39;;;;;;;13.40;9.50;;;;;;;;;;2091431;28;20188;-58
2021/04/24 05:40:40;;;;;;;16.17;9.73;;;;;;;;;;2097603;28;20204;-61
2021/04/24 05:41:40;;;;;;;14.00;9.07;;;;;;;;;;2096940;28;20191;-61
2021/04/24 05:42:41;;;;;;;18.63;10.83;;;;;;;;;;2097666;28;20232;-62
2021/04/24 05:43:41;;;;;;;15.80;10.03;;;;;;;;;;2102637;28;20189;-60
2021/04/24 05:44:41;;;;;;;16.13;10.37;;;;;;;;;;2098343;28;20630;-61
2021/04/24 05:45:41;;;;;;;15.50;9.83;;;;;;;;;;2097260;28;20175;-62
2021/04/24 05:46:42;;;;;;;15.83;9.80;;;;;;;;;;2096425;28;20205;-62
2021/04/24 05:47:46;;;;;;;17.93;10.20;;;;;;;;;;2097718;28;20248;-62
2021/04/24 05:48:47;;;;;;;14.13;9.23;;;;;;;;;;2098131;28;20178;-60
2021/04/24 05:49:48;;;;;;;14.60;8.97;;;;;;;;;;2096950;28;20203;-60
2021/04/24 05:50:48;;;;;;;13.03;8.73;;;;;;;;;;2096431;28;20183;-61
2021/04/24 05:51:48;;;;;;;18.23;9.47;;;;;;;;;;2097872;28;20166;-63
2021/04/24 05:52:48;;;;;;;14.30;9.57;;;;;;;;;;2097424;28;20544;-62
2021/04/24 05:53:50;;;;;;;15.73;10.13;;;;;;;;;;2097736;28;20167;-61
2021/04/24 05:54:50;;;;;;;16.17;10.53;;;;;;;;;;2089606;28;20209;-61
2021/04/24 05:55:50;;;;;;;13.17;9.33;;;;;;;;;;2097220;28;20274;-61
2021/04/24 05:56:50;;;;;;;17.40;10.17;;;;;;;;;;2096708;28;20197;-61
2021/04/24 05:57:51;;;;;;;14.67;10.00;;;;;;;;;;2097254;28;20163;-60
2021/04/24 05:58:51;;;;;;;14.30;10.03;;;;;;;;;;2097221;28;20694;-60
2021/04/24 05:59:51;;;;;;;19.33;9.83;;;;;;;;;;2097671;28;20192;-62